Hovedside
METAR-TAF:

METAR-TAF

Lufthavner :

Vadsø lufthavn

Vadsø, Norge

breddegrad: 70-04N, lengdegrad: 029-51E, høyde over havet: 3 m

Gjeldene værobservasjon

Denne rapporten ble laget for 54 minutter siden, klokken 12:50 UTC
Vind 16 kt fra Sørvest
Temperatur 4°C
Luftfuktighet 87%
Trykk 1007 hPa
Sikt 10 km eller mer
Få skyer i en høyde av 1500 ft
Brutte skyer i en høyde av 2200 ft

METAR: ENVD 151250Z 23016KT 9999 FEW015 BKN022 04/02 Q1007

Tid: 14:44 (13:44 UTC)

Varsel

Denne rapporten ble laget for 2 timer og 44 minutter siden, klokken 11:00 UTC
Varsel gyldig fra 15. klokken 12 UTC til 15. klokken 21 UTC
Vind 18 kt fra Sør-sørvest
Sikt 10 km eller mer
Spredte skyer i en høyde av 700 ft
Brutte skyer i en høyde av 1800 ft
Midlertidig
fra 15. klokken 12 UTC til 15. klokken 15 UTC
Sikt: 4000 m
Brutte skyer i en høyde av 700 ft
lett regn

TAF: ENVD 151100Z 1512/1521 21018KT 9999 SCT007 BKN018 TEMPO 1512/1515 4000 -RA BKN007

Værobservasjoner og værvarsel for over 4000 flyplasser (METAR- og TAF-rapporter).

Tilgjengelige stasjoner er representert av de røde og gule prikkene på kartet.

Hold musepekeren over prikken for å se navnet på stasjonen.

Klikk så for å se værobservasjoner og -varsler.

For å forandre kartet kan du klikke på den grønne knappen med svart kryss for å zoome inn, på den grønne knappen med strek for å zoome ut, eller på de grønne pilene for å se tilstøtende kart.


METAR-TAF: